Portada
METAR-TAF:

METAR-TAF

Aeroports :

Budapest, Hongria

latitud: 47-26N, longitud: 019-16E, altitud: 151 m

Observació

L'informe es va fer fa 24 minuts, a les 03:30 UTC
Vent 2 kt del Nord
Temperatura 0°C
Humitat 93%
Pressió 1010 hPa
Visibilitat 10 km o més
sense núvols per sota de 1500 mi sense presència de cumulonimbus.

METAR: LHBP 290330Z 36002KT CAVOK M00/M01 Q1010 NOSIG

Hora: 05:54 (03:54 UTC)

Pronòstic

L'informe es va fer fa 4 hores i 39 minuts, a les 23:15 UTC
Pronòstic vàlid del 29 a les 00 UTC al 29 a les 24 UTC
Vent 3 kt amb direcció variable
Visibilitat 10 km o més
sense núvols per sota de 1500 mi sense presència de cumulonimbus.
Evolucionant progressivament
l' 29 a les 07 UTC al 29 a les 09 UTC
Vent 7 kt del Nord/Nord-Oest
Evolucionant progressivament
l' 29 a les 13 UTC al 29 a les 15 UTC
Vent 14 kt del Nord/Nord-Oest

TAF: LHBP 282315Z 2900/2924 VRB03KT CAVOK BECMG 2907/2909 33007KT BECMG 2913/2915 33014KT

Observacions i pronòstics meteorològics de més de 4000 aeroports (METAR i TAF).

Les estacions disponibles són els punts grocs i vermells al mapa.

Posi el ratolí al punt desitjat per veure el nom de l'estació.

Feu clic per veure les observacions i els pronòstics meteorològics.

Per canviar el mapa: feu clic els botons verds amb una creu de color negre per apropar; al botó verd amb un guió per allunyar la imatge; o en les fletxes verdes per a mapes adjacents.


METAR-TAF: